createdAt,value
2023-07-15T00:01:14.763Z,0
2023-07-15T00:03:11.151Z,0
2023-07-15T00:05:11.421Z,0
2023-07-15T00:07:10.969Z,0
2023-07-15T00:09:11.159Z,0
2023-07-15T00:11:11.192Z,0
2023-07-15T00:13:10.672Z,0
2023-07-15T00:15:12.329Z,0
2023-07-15T00:17:11.568Z,0
2023-07-15T00:19:10.434Z,0
2023-07-15T00:21:11.354Z,0
2023-07-15T00:23:11.947Z,0
2023-07-15T00:25:11.244Z,0
2023-07-15T00:27:11.398Z,0
2023-07-15T00:29:10.514Z,0
2023-07-15T00:31:11.570Z,0
2023-07-15T00:33:11.628Z,0
2023-07-15T00:35:10.563Z,0
2023-07-15T00:37:11.704Z,0
2023-07-15T00:39:11.091Z,0
2023-07-15T00:41:10.945Z,0
2023-07-15T00:43:14.256Z,0
2023-07-15T00:45:10.877Z,0
2023-07-15T00:47:11.286Z,0
2023-07-15T00:49:11.232Z,0
2023-07-15T00:51:10.983Z,0
2023-07-15T00:53:10.460Z,0
2023-07-15T00:55:11.124Z,0
2023-07-15T00:57:11.378Z,0
2023-07-15T00:59:11.178Z,0
2023-07-15T01:01:14.862Z,0
2023-07-15T01:03:11.384Z,0
2023-07-15T01:05:10.440Z,0
2023-07-15T01:07:11.624Z,0
2023-07-15T01:09:10.901Z,0
2023-07-15T01:11:11.640Z,0
2023-07-15T01:13:10.711Z,0
2023-07-15T01:15:10.447Z,0
2023-07-15T01:17:12.269Z,0
2023-07-15T01:19:10.712Z,0
2023-07-15T01:21:11.350Z,0
2023-07-15T01:23:11.106Z,0
2023-07-15T01:25:10.511Z,0
2023-07-15T01:27:11.522Z,0
2023-07-15T01:29:11.134Z,0
2023-07-15T01:31:11.021Z,0
2023-07-15T01:33:10.626Z,0
2023-07-15T01:35:11.032Z,0
2023-07-15T01:37:11.416Z,0
2023-07-15T01:39:10.529Z,0
2023-07-15T01:41:11.232Z,0
2023-07-15T01:43:10.579Z,0
2023-07-15T01:45:11.375Z,0
2023-07-15T01:47:12.129Z,0
2023-07-15T01:49:12.505Z,0
2023-07-15T01:51:11.075Z,0
2023-07-15T01:53:10.672Z,0
2023-07-15T01:55:11.236Z,0
2023-07-15T01:57:11.442Z,0
2023-07-15T01:59:10.429Z,0
2023-07-15T02:01:18.454Z,0
2023-07-15T02:03:12.159Z,0
2023-07-15T02:05:10.843Z,0
2023-07-15T02:07:12.185Z,0
2023-07-15T02:09:11.562Z,0
2023-07-15T02:11:10.905Z,0
2023-07-15T02:13:10.446Z,0
2023-07-15T02:15:11.182Z,0
2023-07-15T02:17:11.501Z,0
2023-07-15T02:19:11.267Z,0
2023-07-15T02:21:11.253Z,0
2023-07-15T02:23:10.783Z,0
2023-07-15T02:25:11.038Z,0
2023-07-15T02:27:11.125Z,0
2023-07-15T02:29:11.156Z,0
2023-07-15T02:31:11.168Z,0
2023-07-15T02:33:10.715Z,0
2023-07-15T02:35:11.292Z,0
2023-07-15T02:37:11.658Z,0
2023-07-15T02:39:10.772Z,0
2023-07-15T02:41:10.690Z,0
2023-07-15T02:43:11.224Z,0
2023-07-15T02:45:10.839Z,0
2023-07-15T02:47:12.688Z,0
2023-07-15T02:49:10.913Z,0
2023-07-15T02:51:10.809Z,0
2023-07-15T02:53:11.164Z,0
2023-07-15T02:55:10.803Z,0
2023-07-15T02:57:11.180Z,0
2023-07-15T02:59:11.234Z,0
2023-07-15T03:01:14.649Z,0
2023-07-15T03:03:11.034Z,0
2023-07-15T03:05:11.576Z,0
2023-07-15T03:07:11.227Z,0
2023-07-15T03:09:13.709Z,0
2023-07-15T03:11:11.239Z,0
2023-07-15T03:13:10.836Z,0
2023-07-15T03:15:10.313Z,0
2023-07-15T03:17:12.082Z,0
2023-07-15T03:19:10.629Z,0
2023-07-15T03:21:11.226Z,0
2023-07-15T03:23:10.923Z,0
2023-07-15T03:25:11.115Z,0
2023-07-15T03:27:11.386Z,0
2023-07-15T03:29:10.421Z,0
2023-07-15T03:31:11.088Z,0
2023-07-15T03:33:10.898Z,0
2023-07-15T03:35:13.378Z,0
2023-07-15T03:37:10.685Z,0
2023-07-15T03:39:10.424Z,0
2023-07-15T03:41:11.508Z,0
2023-07-15T03:43:10.936Z,0
2023-07-15T03:45:10.408Z,0
2023-07-15T03:47:11.913Z,0
2023-07-15T03:49:10.787Z,0
2023-07-15T03:51:11.288Z,0
2023-07-15T03:53:10.851Z,0
2023-07-15T03:55:10.468Z,0
2023-07-15T03:57:11.418Z,0
2023-07-15T03:59:10.837Z,0
2023-07-15T04:01:14.093Z,0
2023-07-15T04:03:11.180Z,0
2023-07-15T04:05:10.968Z,0
2023-07-15T04:07:10.948Z,0
2023-07-15T04:09:11.089Z,0
2023-07-15T04:11:10.857Z,0
2023-07-15T04:13:10.526Z,0
2023-07-15T04:15:11.122Z,0
2023-07-15T04:17:12.049Z,0
2023-07-15T04:19:11.425Z,0
2023-07-15T04:21:11.584Z,0
2023-07-15T04:23:10.867Z,0
2023-07-15T04:25:11.206Z,0
2023-07-15T04:27:11.508Z,0
2023-07-15T04:29:11.108Z,0
2023-07-15T04:31:11.109Z,0
2023-07-15T04:33:10.787Z,0
2023-07-15T04:35:12.000Z,0
2023-07-15T04:37:11.243Z,0
2023-07-15T04:39:10.457Z,0
2023-07-15T04:41:11.237Z,0
2023-07-15T04:43:11.269Z,0
2023-07-15T04:45:10.667Z,0
2023-07-15T04:47:11.401Z,0
2023-07-15T04:49:11.239Z,0
2023-07-15T04:51:10.776Z,0
2023-07-15T04:53:10.351Z,0
2023-07-15T04:55:11.094Z,0
2023-07-15T04:57:10.979Z,0
2023-07-15T04:59:11.078Z,0
2023-07-15T05:01:15.718Z,0
2023-07-15T05:03:11.772Z,0
2023-07-15T05:05:10.887Z,0
2023-07-15T05:07:11.422Z,0
2023-07-15T05:09:10.785Z,0
2023-07-15T05:11:11.740Z,0
2023-07-15T05:13:10.992Z,0
2023-07-15T05:15:10.587Z,0
2023-07-15T05:17:11.396Z,0
2023-07-15T05:19:10.747Z,0
2023-07-15T05:21:11.330Z,0
2023-07-15T05:23:11.286Z,0
2023-07-15T05:25:13.656Z,0
2023-07-15T05:27:10.894Z,0
2023-07-15T05:29:10.653Z,0
2023-07-15T05:31:10.655Z,0
2023-07-15T05:33:11.197Z,0
2023-07-15T05:35:10.596Z,0
2023-07-15T05:37:11.036Z,0
2023-07-15T05:39:10.603Z,0
2023-07-15T05:41:11.350Z,0
2023-07-15T05:43:11.050Z,0
2023-07-15T05:45:10.653Z,0
2023-07-15T05:47:11.410Z,0
2023-07-15T05:49:12.730Z,0
2023-07-15T05:51:10.707Z,0
2023-07-15T05:53:11.178Z,0
2023-07-15T05:55:10.537Z,0
2023-07-15T05:57:11.204Z,0
2023-07-15T05:59:10.947Z,0
2023-07-15T06:01:11.933Z,0
2023-07-15T06:03:11.773Z,0
2023-07-15T06:05:10.887Z,0
2023-07-15T06:07:11.250Z,0
2023-07-15T06:09:11.037Z,0
2023-07-15T06:11:10.953Z,0
2023-07-15T06:13:12.158Z,0
2023-07-15T06:15:10.738Z,0
2023-07-15T06:17:11.373Z,0
2023-07-15T06:19:11.039Z,0
2023-07-15T06:21:11.757Z,0
2023-07-15T06:23:15.569Z,0
2023-07-15T06:25:10.363Z,0
2023-07-15T06:27:11.776Z,0
2023-07-15T06:29:10.841Z,0
2023-07-15T06:31:13.114Z,0
2023-07-15T06:33:10.867Z,0
2023-07-15T06:35:11.148Z,0
2023-07-15T06:37:11.088Z,0
2023-07-15T06:39:10.669Z,0
2023-07-15T06:41:11.080Z,0
2023-07-15T06:43:10.426Z,0
2023-07-15T06:45:11.256Z,0
2023-07-15T06:47:11.033Z,0
2023-07-15T06:49:11.185Z,0
2023-07-15T06:51:10.641Z,0
2023-07-15T06:53:11.110Z,0
2023-07-15T06:55:10.747Z,0
2023-07-15T06:57:28.807Z,0
2023-07-15T06:59:11.089Z,0
2023-07-15T07:01:16.276Z,0
2023-07-15T07:03:11.391Z,0
2023-07-15T07:05:10.680Z,0
2023-07-15T07:07:10.736Z,0
2023-07-15T07:09:10.979Z,0
2023-07-15T07:11:10.771Z,0
2023-07-15T07:13:11.255Z,0
2023-07-15T07:15:10.792Z,0
2023-07-15T07:17:11.325Z,0
2023-07-15T07:19:11.979Z,0
2023-07-15T07:21:14.430Z,0
2023-07-15T07:23:11.025Z,0
2023-07-15T07:25:11.318Z,0
2023-07-15T07:27:10.774Z,0
2023-07-15T07:29:10.293Z,0
2023-07-15T07:31:11.792Z,0
2023-07-15T07:33:10.874Z,0
2023-07-15T07:35:11.168Z,0
2023-07-15T07:37:13.047Z,0
2023-07-15T07:39:11.053Z,0
2023-07-15T07:41:11.138Z,0
2023-07-15T07:43:12.179Z,0
2023-07-15T07:45:11.053Z,0
2023-07-15T07:47:10.902Z,0
2023-07-15T07:49:11.231Z,0
2023-07-15T07:51:11.069Z,0
2023-07-15T07:53:10.567Z,0
2023-07-15T07:55:11.234Z,0
2023-07-15T07:57:10.722Z,0
2023-07-15T07:59:11.128Z,0
2023-07-15T08:01:15.198Z,0
2023-07-15T08:03:12.101Z,0
2023-07-15T08:05:11.466Z,0
2023-07-15T08:07:10.459Z,0
2023-07-15T08:09:10.902Z,0
2023-07-15T08:11:10.716Z,0
2023-07-15T08:13:11.142Z,0
2023-07-15T08:15:10.793Z,0
2023-07-15T08:17:11.900Z,0
2023-07-15T08:19:10.840Z,0
2023-07-15T08:21:11.580Z,0
2023-07-15T08:23:11.688Z,0
2023-07-15T08:25:10.572Z,0
2023-07-15T08:27:11.125Z,0
2023-07-15T08:29:11.102Z,0
2023-07-15T08:31:11.018Z,0
2023-07-15T08:33:12.075Z,0
2023-07-15T08:35:10.702Z,0
2023-07-15T08:37:10.403Z,0
2023-07-15T08:39:11.087Z,0
2023-07-15T08:41:10.958Z,0
2023-07-15T08:43:11.357Z,0
2023-07-15T08:45:10.971Z,0
2023-07-15T08:47:11.546Z,0
2023-07-15T08:49:11.424Z,0
2023-07-15T08:51:11.143Z,0
2023-07-15T08:53:10.503Z,0
2023-07-15T08:55:11.593Z,0
2023-07-15T08:57:10.609Z,0
2023-07-15T08:59:11.038Z,0
2023-07-15T09:01:16.997Z,0
2023-07-15T09:03:11.600Z,0
2023-07-15T09:05:11.886Z,0
2023-07-15T09:07:10.620Z,0
2023-07-15T09:09:11.178Z,0
2023-07-15T09:11:11.151Z,0
2023-07-15T09:13:10.700Z,0
2023-07-15T09:15:17.747Z,0
2023-07-15T09:17:11.012Z,0
2023-07-15T09:19:11.414Z,0
2023-07-15T09:21:11.935Z,0
2023-07-15T09:23:10.951Z,0
2023-07-15T09:25:10.963Z,0
2023-07-15T09:27:13.913Z,0
2023-07-15T09:29:11.153Z,0
2023-07-15T09:31:10.940Z,0
2023-07-15T09:33:11.498Z,0
2023-07-15T09:35:10.864Z,0
2023-07-15T09:37:11.254Z,0
2023-07-15T09:39:10.931Z,0
2023-07-15T09:41:10.811Z,0
2023-07-15T09:43:11.084Z,0
2023-07-15T09:45:10.872Z,0
2023-07-15T09:47:10.802Z,0
2023-07-15T09:49:11.140Z,0
2023-07-15T09:51:10.855Z,0
2023-07-15T09:53:10.470Z,0
2023-07-15T09:55:11.096Z,0
2023-07-15T09:57:10.575Z,0
2023-07-15T09:59:11.200Z,0
2023-07-15T10:01:14.408Z,0
2023-07-15T10:03:13.944Z,0
2023-07-15T10:05:11.386Z,0
2023-07-15T10:07:10.787Z,0
2023-07-15T10:09:15.094Z,0
2023-07-15T10:11:11.236Z,0
2023-07-15T10:13:10.825Z,0
2023-07-15T10:15:11.338Z,0
2023-07-15T10:17:11.262Z,0
2023-07-15T10:19:11.499Z,0
2023-07-15T10:21:14.207Z,0
2023-07-15T10:23:11.122Z,0
2023-07-15T10:25:11.313Z,0
2023-07-15T10:27:11.090Z,0
2023-07-15T10:29:10.809Z,0
2023-07-15T10:31:29.483Z,0
2023-07-15T10:33:12.898Z,0
2023-07-15T10:35:10.892Z,0
2023-07-15T10:37:10.414Z,0
2023-07-15T10:39:13.260Z,0
2023-07-15T10:41:10.738Z,0
2023-07-15T10:43:11.268Z,0
2023-07-15T10:45:10.896Z,0
2023-07-15T10:47:12.654Z,0
2023-07-15T10:49:11.411Z,0
2023-07-15T10:51:10.921Z,0
2023-07-15T10:53:11.306Z,0
2023-07-15T10:55:11.153Z,0
2023-07-15T10:57:11.830Z,0
2023-07-15T10:59:11.022Z,0
2023-07-15T11:01:11.297Z,0
2023-07-15T11:03:11.660Z,0
2023-07-15T11:05:11.900Z,0
2023-07-15T11:07:12.182Z,0
2023-07-15T11:09:11.226Z,0
2023-07-15T11:11:10.960Z,0
2023-07-15T11:13:10.297Z,0
2023-07-15T11:15:11.007Z,0
2023-07-15T11:17:11.098Z,0
2023-07-15T11:19:11.547Z,0
2023-07-15T11:21:11.247Z,0
2023-07-15T11:23:10.965Z,0
2023-07-15T11:25:11.284Z,0
2023-07-15T11:27:12.000Z,0
2023-07-15T11:29:10.778Z,0
2023-07-15T11:31:11.386Z,0
2023-07-15T11:33:11.001Z,0
2023-07-15T11:35:13.216Z,0
2023-07-15T11:37:11.765Z,0
2023-07-15T11:39:10.674Z,0
2023-07-15T11:41:15.203Z,0
2023-07-15T11:43:10.876Z,0
2023-07-15T11:45:12.985Z,0
2023-07-15T11:47:11.994Z,0
2023-07-15T11:49:11.071Z,0
2023-07-15T11:51:11.482Z,0
2023-07-15T11:53:10.937Z,0
2023-07-15T11:55:10.917Z,0
2023-07-15T11:57:12.035Z,0
2023-07-15T11:59:10.712Z,0
2023-07-15T12:01:33.218Z,0
2023-07-15T12:03:15.424Z,0
2023-07-15T12:05:11.164Z,0
2023-07-15T12:07:11.803Z,0
2023-07-15T12:09:10.999Z,0
2023-07-15T12:11:10.845Z,0
2023-07-15T12:13:12.128Z,0
2023-07-15T12:15:10.995Z,0.5
2023-07-15T12:17:11.865Z,42.3
2023-07-15T12:19:12.839Z,42.3
2023-07-15T12:21:10.598Z,10.28
2023-07-15T12:23:11.629Z,9.26
2023-07-15T12:25:11.044Z,9.26
2023-07-15T12:27:11.310Z,9.26
2023-07-15T12:29:11.040Z,9.26
2023-07-15T12:31:15.435Z,9.26
2023-07-15T12:33:11.411Z,9.26
2023-07-15T12:35:13.173Z,9.26
2023-07-15T12:37:10.344Z,9.26
2023-07-15T12:39:11.198Z,9.26
2023-07-15T12:41:10.877Z,9.26
2023-07-15T12:43:11.236Z,9.26
2023-07-15T12:45:10.805Z,9.26
2023-07-15T12:47:11.783Z,9.26
2023-07-15T12:49:11.171Z,9.26
2023-07-15T12:51:11.044Z,9.26
2023-07-15T12:53:10.558Z,9.26
2023-07-15T12:55:11.077Z,9.26
2023-07-15T12:57:11.041Z,9.26
2023-07-15T12:59:13.932Z,9.26
2023-07-15T13:01:14.160Z,9.26
2023-07-15T13:03:11.039Z,9.26
2023-07-15T13:05:15.157Z,9.26
2023-07-15T13:07:10.628Z,9.26
2023-07-15T13:09:10.975Z,9.26
2023-07-15T13:11:11.059Z,9.26
2023-07-15T13:13:10.607Z,9.26
2023-07-15T13:15:11.135Z,9.26
2023-07-15T13:17:11.806Z,9.26
2023-07-15T13:19:10.326Z,9.26
2023-07-15T13:21:11.456Z,9.26
2023-07-15T13:23:11.148Z,9.26
2023-07-15T13:25:11.099Z,9.26
2023-07-15T13:27:11.067Z,9.26
2023-07-15T13:29:10.571Z,9.26
2023-07-15T13:31:11.650Z,9.26
2023-07-15T13:33:11.548Z,9.26
2023-07-15T13:35:10.821Z,9.26
2023-07-15T13:37:11.177Z,9.26
2023-07-15T13:39:12.648Z,9.26
2023-07-15T13:41:10.839Z,9.26
2023-07-15T13:43:11.256Z,9.26
2023-07-15T13:45:14.463Z,9.26
2023-07-15T13:47:11.398Z,9.26
2023-07-15T13:49:13.454Z,9.26
2023-07-15T13:51:10.592Z,9.26
2023-07-15T13:53:11.274Z,9.26
2023-07-15T13:55:10.716Z,9.26
2023-07-15T13:57:11.214Z,9.26
2023-07-15T13:59:11.104Z,9.26
2023-07-15T14:01:23.203Z,9.26
2023-07-15T14:03:11.151Z,9.26
2023-07-15T14:05:10.990Z,9.26
2023-07-15T14:07:11.596Z,9.26
2023-07-15T14:09:10.944Z,9.26
2023-07-15T14:11:10.780Z,9.26
2023-07-15T14:13:11.326Z,9.26
2023-07-15T14:15:10.661Z,9.26
2023-07-15T14:17:11.124Z,9.26
2023-07-15T14:19:11.025Z,9.26
2023-07-15T14:21:10.773Z,9.26
2023-07-15T14:23:46.680Z,9.26
2023-07-15T14:25:11.383Z,9.26
2023-07-15T14:27:11.157Z,9.26
2023-07-15T14:29:10.663Z,9.26
2023-07-15T14:31:11.817Z,9.26
2023-07-15T14:33:13.745Z,9.26
2023-07-15T14:35:10.765Z,9.26
2023-07-15T14:37:11.619Z,9.26
2023-07-15T14:43:11.626Z,9.26
2023-07-15T14:45:23.019Z,9.26
2023-07-15T14:47:10.848Z,9.26
2023-07-15T14:49:11.171Z,9.26
2023-07-15T14:51:10.726Z,9.26
2023-07-15T14:53:10.377Z,9.26
2023-07-15T14:55:13.695Z,9.26
2023-07-15T14:57:10.698Z,9.26
2023-07-15T14:59:11.164Z,9.26
2023-07-15T15:01:16.067Z,9.26
2023-07-15T15:03:10.722Z,9.26
2023-07-15T15:05:11.424Z,9.26
2023-07-15T15:07:13.782Z,9.26
2023-07-15T15:09:11.246Z,9.26
2023-07-15T15:11:11.000Z,9.26
2023-07-15T15:13:15.617Z,9.26
2023-07-15T15:15:10.930Z,9.26
2023-07-15T15:17:11.281Z,9.26
2023-07-15T15:19:14.998Z,9.26
2023-07-15T15:21:10.942Z,9.26
2023-07-15T15:23:10.966Z,9.26
2023-07-15T15:25:15.758Z,9.26
2023-07-15T15:27:10.940Z,9.26
2023-07-15T15:29:10.496Z,9.26
2023-07-15T15:31:13.161Z,9.26
2023-07-15T15:33:11.459Z,9.26
2023-07-15T15:35:11.732Z,9.26
2023-07-15T15:37:11.466Z,9.26
2023-07-15T15:39:10.528Z,9.26
2023-07-15T15:41:11.367Z,9.26
2023-07-15T15:43:10.777Z,9.26
2023-07-15T15:45:10.531Z,9.26
2023-07-15T15:47:11.470Z,9.26
2023-07-15T15:49:14.317Z,9.26
2023-07-15T15:51:10.446Z,9.26
2023-07-15T15:53:11.240Z,9.26
2023-07-15T15:55:10.961Z,9.26
2023-07-15T15:57:10.384Z,9.26
2023-07-15T15:59:11.039Z,9.26
2023-07-15T16:01:10.820Z,9.26
2023-07-15T16:03:11.772Z,9.26
2023-07-15T16:05:11.384Z,9.26
2023-07-15T16:07:11.297Z,9.26
2023-07-15T16:09:11.133Z,9.26
2023-07-15T16:11:11.400Z,9.26
2023-07-15T16:13:13.004Z,9.26
2023-07-15T16:15:11.077Z,9.26
2023-07-15T16:17:10.866Z,9.26
2023-07-15T16:19:11.010Z,9.26
2023-07-15T16:21:11.121Z,9.26
2023-07-15T16:23:10.780Z,9.26
2023-07-15T16:25:10.901Z,9.26
2023-07-15T16:27:10.451Z,9.26
2023-07-15T16:29:11.251Z,0.2
2023-07-15T16:31:11.018Z,0.16
2023-07-15T16:33:12.234Z,0.16
2023-07-15T16:35:10.713Z,0.03
2023-07-15T16:37:11.211Z,0.03
2023-07-15T16:39:10.799Z,0.03
2023-07-15T16:41:10.749Z,1.37
2023-07-15T16:43:11.176Z,0.01
2023-07-15T16:45:10.473Z,0.01
2023-07-15T16:47:11.580Z,0.01
2023-07-15T16:49:11.763Z,0.01
2023-07-15T16:51:10.691Z,0.01
2023-07-15T16:53:11.152Z,0.77
2023-07-15T16:55:10.720Z,0.01
2023-07-15T16:57:11.942Z,0.01
2023-07-15T16:59:11.372Z,0.63
2023-07-15T17:01:14.648Z,0.01
2023-07-15T17:03:11.529Z,0.01
2023-07-15T17:05:10.784Z,0.01
2023-07-15T17:07:10.871Z,0.01
2023-07-15T17:09:10.820Z,0.01
2023-07-15T17:11:11.595Z,0.46
2023-07-15T17:13:10.826Z,0.46
2023-07-15T17:15:10.451Z,0.46
2023-07-15T17:17:11.717Z,0.43
2023-07-15T17:19:10.711Z,0
2023-07-15T17:21:11.221Z,0
2023-07-15T17:23:11.228Z,0
2023-07-15T17:25:10.551Z,0.39
2023-07-15T17:27:11.228Z,0.39
2023-07-15T17:29:10.891Z,0
2023-07-15T17:31:11.481Z,0
2023-07-15T17:33:13.806Z,0
2023-07-15T17:35:10.631Z,0
2023-07-15T17:37:11.286Z,0.33
2023-07-15T17:39:11.093Z,0.33
2023-07-15T17:41:10.685Z,0.32
2023-07-15T17:43:12.504Z,0.32
2023-07-15T17:45:11.062Z,0.32
2023-07-15T17:47:11.934Z,0
2023-07-15T17:49:11.098Z,0
2023-07-15T17:51:10.952Z,0
2023-07-15T17:53:14.784Z,0
2023-07-15T17:55:25.995Z,0
2023-07-15T17:57:10.616Z,0
2023-07-15T17:59:11.232Z,0
2023-07-15T18:01:17.369Z,0
2023-07-15T18:03:13.766Z,0
2023-07-15T18:05:10.471Z,0
2023-07-15T18:07:10.820Z,0.27
2023-07-15T18:09:15.455Z,0.27
2023-07-15T18:11:10.910Z,0
2023-07-15T18:13:10.765Z,0
2023-07-15T18:15:11.260Z,0
2023-07-15T18:17:14.312Z,0.25
2023-07-15T18:19:10.269Z,0
2023-07-15T18:21:11.382Z,0
2023-07-15T18:23:11.207Z,0
2023-07-15T18:25:11.452Z,0
2023-07-15T18:27:11.567Z,0
2023-07-15T18:29:10.609Z,0
2023-07-15T18:31:11.625Z,0
2023-07-15T18:33:11.547Z,0
2023-07-15T18:35:31.071Z,0
2023-07-15T18:37:10.689Z,0.16
2023-07-15T18:39:10.341Z,0.16
2023-07-15T18:41:11.327Z,0.15
2023-07-15T18:43:10.702Z,0.15
2023-07-15T18:45:11.312Z,0.15
2023-07-15T18:47:10.871Z,0
2023-07-15T18:49:11.501Z,0.14
2023-07-15T18:51:14.701Z,0.14
2023-07-15T18:53:10.509Z,0
2023-07-15T18:55:11.055Z,0
2023-07-15T18:57:24.085Z,0
2023-07-15T18:59:10.473Z,0.12
2023-07-15T19:01:14.659Z,0
2023-07-15T19:03:11.441Z,0
2023-07-15T19:05:10.685Z,0
2023-07-15T19:07:10.969Z,0
2023-07-15T19:09:10.702Z,0
2023-07-15T19:11:11.606Z,0
2023-07-15T19:13:10.889Z,0
2023-07-15T19:15:10.637Z,0
2023-07-15T19:17:10.803Z,0
2023-07-15T19:19:11.011Z,0
2023-07-15T19:21:10.827Z,0
2023-07-15T19:23:11.733Z,0
2023-07-15T19:25:10.930Z,0
2023-07-15T19:27:10.593Z,0
2023-07-15T19:29:11.221Z,0
2023-07-15T19:31:11.403Z,0
2023-07-15T19:33:10.776Z,0
2023-07-15T19:35:11.189Z,0
2023-07-15T19:37:10.929Z,0
2023-07-15T19:39:11.026Z,0
2023-07-15T19:41:11.341Z,0
2023-07-15T19:43:11.090Z,0
2023-07-15T19:45:10.702Z,0
2023-07-15T19:47:12.501Z,0
2023-07-15T19:49:10.729Z,0
2023-07-15T19:51:11.317Z,0
2023-07-15T19:53:14.474Z,0
2023-07-15T19:55:10.649Z,0
2023-07-15T19:57:11.837Z,0
2023-07-15T19:59:10.861Z,0
2023-07-15T20:01:14.776Z,0
2023-07-15T20:03:11.538Z,0
2023-07-15T20:05:11.251Z,0
2023-07-15T20:07:10.831Z,0
2023-07-15T20:09:11.039Z,0
2023-07-15T20:11:10.966Z,0
2023-07-15T20:13:10.559Z,0
2023-07-15T20:15:11.150Z,0
2023-07-15T20:17:12.029Z,0
2023-07-15T20:19:11.309Z,0
2023-07-15T20:21:11.120Z,0
2023-07-15T20:23:11.075Z,0
2023-07-15T20:25:10.350Z,0
2023-07-15T20:27:11.486Z,0
2023-07-15T20:29:10.581Z,0
2023-07-15T20:31:11.558Z,0
2023-07-15T20:33:14.770Z,0
2023-07-15T20:35:10.525Z,0
2023-07-15T20:37:11.259Z,0
2023-07-15T20:39:10.636Z,0
2023-07-15T20:41:29.431Z,0
2023-07-15T20:43:11.350Z,0
2023-07-15T20:45:10.826Z,0
2023-07-15T20:47:11.440Z,0
2023-07-15T20:49:11.286Z,0
2023-07-15T20:51:11.176Z,0
2023-07-15T20:53:10.616Z,0
2023-07-15T20:55:11.226Z,0
2023-07-15T20:57:11.143Z,0
2023-07-15T20:59:11.178Z,0
2023-07-15T21:01:20.611Z,0
2023-07-15T21:03:14.176Z,0
2023-07-15T21:05:11.366Z,0
2023-07-15T21:07:11.141Z,0
2023-07-15T21:09:10.441Z,0
2023-07-15T21:11:13.282Z,0
2023-07-15T21:13:10.781Z,0
2023-07-15T21:15:10.369Z,0
2023-07-15T21:17:12.036Z,0
2023-07-15T21:19:11.009Z,0
2023-07-15T21:21:14.290Z,0
2023-07-15T21:23:11.324Z,0
2023-07-15T21:25:10.665Z,0
2023-07-15T21:27:16.410Z,0
2023-07-15T21:29:11.367Z,0
2023-07-15T21:31:11.360Z,0
2023-07-15T21:33:11.953Z,0
2023-07-15T21:35:11.289Z,0
2023-07-15T21:37:11.472Z,0
2023-07-15T21:39:10.588Z,0
2023-07-15T21:41:11.401Z,0
2023-07-15T21:43:11.182Z,0
2023-07-15T21:45:10.338Z,0
2023-07-15T21:47:12.434Z,0
2023-07-15T21:49:10.780Z,0
2023-07-15T21:51:11.426Z,0
2023-07-15T21:53:11.161Z,0
2023-07-15T21:55:10.481Z,0
2023-07-15T21:57:11.791Z,0
2023-07-15T21:59:10.801Z,0
2023-07-15T22:01:14.818Z,0
2023-07-15T22:03:11.246Z,0
2023-07-15T22:05:10.384Z,0
2023-07-15T22:07:11.300Z,0
2023-07-15T22:09:10.796Z,0
2023-07-15T22:11:11.778Z,0
2023-07-15T22:13:11.194Z,0
2023-07-15T22:15:10.652Z,0
2023-07-15T22:17:11.730Z,0
2023-07-15T22:19:27.786Z,0
2023-07-15T22:21:11.347Z,0
2023-07-15T22:23:11.564Z,0
2023-07-15T22:25:10.694Z,0
2023-07-15T22:27:10.420Z,0
2023-07-15T22:29:11.130Z,0
2023-07-15T22:31:10.927Z,0
2023-07-15T22:33:11.459Z,0
2023-07-15T22:35:10.744Z,0
2023-07-15T22:37:10.639Z,0
2023-07-15T22:39:10.889Z,0
2023-07-15T22:41:10.960Z,0
2023-07-15T22:43:10.501Z,0
2023-07-15T22:45:12.243Z,0
2023-07-15T22:47:11.066Z,0
2023-07-15T22:49:11.339Z,0
2023-07-15T22:51:11.069Z,0
2023-07-15T22:53:11.701Z,0
2023-07-15T22:55:11.034Z,0
2023-07-15T22:57:11.564Z,0
2023-07-15T22:59:11.468Z,0
2023-07-15T23:01:12.055Z,0
2023-07-15T23:03:11.549Z,0
2023-07-15T23:05:11.105Z,0
2023-07-15T23:07:11.177Z,0
2023-07-15T23:09:11.250Z,0
2023-07-15T23:11:11.743Z,0
2023-07-15T23:13:10.339Z,0
2023-07-15T23:15:11.482Z,0
2023-07-15T23:17:31.304Z,0
2023-07-15T23:19:14.462Z,0
2023-07-15T23:21:11.049Z,0
2023-07-15T23:23:28.469Z,0
2023-07-15T23:25:10.992Z,0
2023-07-15T23:27:10.948Z,0
2023-07-15T23:29:11.258Z,0
2023-07-15T23:31:11.473Z,0
2023-07-15T23:33:10.829Z,0
2023-07-15T23:35:11.828Z,0
2023-07-15T23:37:11.213Z,0
2023-07-15T23:39:12.034Z,0
2023-07-15T23:41:11.219Z,0
2023-07-15T23:43:10.600Z,0
2023-07-15T23:45:11.398Z,0
2023-07-15T23:47:11.720Z,0
2023-07-15T23:49:10.528Z,0
2023-07-15T23:51:11.276Z,0
2023-07-15T23:53:10.872Z,0
2023-07-15T23:55:10.502Z,0
2023-07-15T23:57:11.274Z,0
2023-07-15T23:59:10.628Z,0
